sensor_id;sensor_type;location;lat;lon;timestamp;pressure;altitude;pressure_sealevel;temperature;humidity
25350;BME280;13302;48.796;11.978;2024-03-02T00:02:22;95842.22;;;7.35;46.51
25350;BME280;13302;48.796;11.978;2024-03-02T00:05:14;95839.47;;;7.35;46.40
25350;BME280;13302;48.796;11.978;2024-03-02T00:08:04;95844.63;;;7.37;46.51
25350;BME280;13302;48.796;11.978;2024-03-02T00:10:52;95840.72;;;7.38;46.27
25350;BME280;13302;48.796;11.978;2024-03-02T00:13:45;95843.03;;;7.36;46.37
25350;BME280;13302;48.796;11.978;2024-03-02T00:16:32;95841.75;;;7.33;46.61
25350;BME280;13302;48.796;11.978;2024-03-02T00:19:19;95840.97;;;7.33;46.55
25350;BME280;13302;48.796;11.978;2024-03-02T00:22:07;95837.84;;;7.34;46.38
25350;BME280;13302;48.796;11.978;2024-03-02T00:24:54;95837.53;;;7.36;46.63
25350;BME280;13302;48.796;11.978;2024-03-02T00:27:41;95833.63;;;7.37;46.45
25350;BME280;13302;48.796;11.978;2024-03-02T00:33:34;95834.78;;;7.36;46.34
25350;BME280;13302;48.796;11.978;2024-03-02T00:36:25;95826.53;;;7.36;46.48
25350;BME280;13302;48.796;11.978;2024-03-02T00:39:14;95828.78;;;7.34;46.66
25350;BME280;13302;48.796;11.978;2024-03-02T00:42:02;95822.88;;;7.32;46.49
25350;BME280;13302;48.796;11.978;2024-03-02T00:44:49;95824.81;;;7.31;46.56
25350;BME280;13302;48.796;11.978;2024-03-02T00:47:39;95826.41;;;7.32;47.02
25350;BME280;13302;48.796;11.978;2024-03-02T00:50:26;95821.03;;;7.36;46.81
25350;BME280;13302;48.796;11.978;2024-03-02T00:53:23;95826.84;;;7.34;47.02
25350;BME280;13302;48.796;11.978;2024-03-02T00:56:13;95822.25;;;7.38;46.36
25350;BME280;13302;48.796;11.978;2024-03-02T00:59:00;95826.63;;;7.40;46.52
25350;BME280;13302;48.796;11.978;2024-03-02T01:01:48;95827.75;;;7.38;46.58
25350;BME280;13302;48.796;11.978;2024-03-02T01:04:36;95821.91;;;7.40;46.50
25350;BME280;13302;48.796;11.978;2024-03-02T01:07:23;95821.91;;;7.40;46.57
25350;BME280;13302;48.796;11.978;2024-03-02T01:10:10;95813.31;;;7.42;46.47
25350;BME280;13302;48.796;11.978;2024-03-02T01:12:57;95814.09;;;7.42;46.52
25350;BME280;13302;48.796;11.978;2024-03-02T01:15:44;95813.41;;;7.45;46.46
25350;BME280;13302;48.796;11.978;2024-03-02T01:18:31;95815.09;;;7.50;46.35
25350;BME280;13302;48.796;11.978;2024-03-02T01:21:19;95813.41;;;7.45;46.54
25350;BME280;13302;48.796;11.978;2024-03-02T01:24:06;95814.47;;;7.41;46.53
25350;BME280;13302;48.796;11.978;2024-03-02T01:26:53;95818.03;;;7.41;46.70
25350;BME280;13302;48.796;11.978;2024-03-02T01:29:40;95818.81;;;7.42;46.98
25350;BME280;13302;48.796;11.978;2024-03-02T01:32:27;95809.41;;;7.43;46.54
25350;BME280;13302;48.796;11.978;2024-03-02T01:35:14;95808.97;;;7.41;46.79
25350;BME280;13302;48.796;11.978;2024-03-02T01:38:01;95809.78;;;7.41;46.51
25350;BME280;13302;48.796;11.978;2024-03-02T01:40:49;95813.66;;;7.40;46.56
25350;BME280;13302;48.796;11.978;2024-03-02T01:43:36;95808.97;;;7.41;46.76
25350;BME280;13302;48.796;11.978;2024-03-02T01:46:27;95816.06;;;7.42;46.53
25350;BME280;13302;48.796;11.978;2024-03-02T01:49:14;95807.81;;;7.42;46.85
25350;BME280;13302;48.796;11.978;2024-03-02T01:52:01;95820.78;;;7.41;46.74
25350;BME280;13302;48.796;11.978;2024-03-02T01:54:49;95819.97;;;7.41;46.54
25350;BME280;13302;48.796;11.978;2024-03-02T01:57:36;95820.41;;;7.43;46.29
25350;BME280;13302;48.796;11.978;2024-03-02T02:00:23;95818.03;;;7.41;46.40
25350;BME280;13302;48.796;11.978;2024-03-02T02:03:14;95828.94;;;7.38;46.45
25350;BME280;13302;48.796;11.978;2024-03-02T02:06:01;95822.25;;;7.38;46.63
25350;BME280;13302;48.796;11.978;2024-03-02T02:08:48;95819.88;;;7.37;46.18
25350;BME280;13302;48.796;11.978;2024-03-02T02:11:35;95822.72;;;7.41;46.49
25350;BME280;13302;48.796;11.978;2024-03-02T02:14:22;95822.72;;;7.41;46.30
25350;BME280;13302;48.796;11.978;2024-03-02T02:17:09;95817.66;;;7.43;46.06
25350;BME280;13302;48.796;11.978;2024-03-02T02:19:56;95822.47;;;7.46;46.33
25350;BME280;13302;48.796;11.978;2024-03-02T02:23:02;95809.41;;;7.43;46.33
25350;BME280;13302;48.796;11.978;2024-03-02T02:25:50;95809.84;;;7.45;46.05
25350;BME280;13302;48.796;11.978;2024-03-02T02:28:37;95808.50;;;7.38;46.41
25350;BME280;13302;48.796;11.978;2024-03-02T02:31:24;95807.59;;;7.34;46.46
25350;BME280;13302;48.796;11.978;2024-03-02T02:34:11;95808.09;;;7.36;46.53
25350;BME280;13302;48.796;11.978;2024-03-02T02:36:58;95807.59;;;7.34;46.67
25350;BME280;13302;48.796;11.978;2024-03-02T02:39:45;95807.28;;;7.36;46.39
25350;BME280;13302;48.796;11.978;2024-03-02T02:42:33;95801.69;;;7.32;46.61
25350;BME280;13302;48.796;11.978;2024-03-02T02:45:20;95801.00;;;7.35;46.66
25350;BME280;13302;48.796;11.978;2024-03-02T02:48:08;95799.72;;;7.33;46.69
25350;BME280;13302;48.796;11.978;2024-03-02T02:50:55;95796.97;;;7.33;46.59
25350;BME280;13302;48.796;11.978;2024-03-02T02:53:42;95802.09;;;7.34;46.97
25350;BME280;13302;48.796;11.978;2024-03-02T02:56:29;95794.69;;;7.35;46.61
25350;BME280;13302;48.796;11.978;2024-03-02T02:59:16;95795.22;;;7.41;46.58
25350;BME280;13302;48.796;11.978;2024-03-02T03:02:03;95799.19;;;7.43;46.41
25350;BME280;13302;48.796;11.978;2024-03-02T03:04:50;95798.06;;;7.44;46.19
25350;BME280;13302;48.796;11.978;2024-03-02T03:07:39;95807.19;;;7.48;46.09
25350;BME280;13302;48.796;11.978;2024-03-02T03:10:26;95802.41;;;7.45;46.38
25350;BME280;13302;48.796;11.978;2024-03-02T03:13:14;95792.09;;;7.42;46.35
25350;BME280;13302;48.796;11.978;2024-03-02T03:16:01;95807.09;;;7.45;46.42
25350;BME280;13302;48.796;11.978;2024-03-02T03:18:48;95799.56;;;7.42;46.32
25350;BME280;13302;48.796;11.978;2024-03-02T03:21:38;95800.00;;;7.44;46.35
25350;BME280;13302;48.796;11.978;2024-03-02T03:24:26;95798.94;;;7.48;46.28
25350;BME280;13302;48.796;11.978;2024-03-02T03:27:13;95800.53;;;7.49;46.15
25350;BME280;13302;48.796;11.978;2024-03-02T03:30:00;95797.97;;;7.41;46.50
25350;BME280;13302;48.796;11.978;2024-03-02T03:32:47;95794.78;;;7.38;46.62
25350;BME280;13302;48.796;11.978;2024-03-02T03:35:37;95784.66;;;7.43;46.32
25350;BME280;13302;48.796;11.978;2024-03-02T03:38:24;95777.56;;;7.57;46.13
25350;BME280;13302;48.796;11.978;2024-03-02T03:41:11;95774.53;;;7.62;46.00
25350;BME280;13302;48.796;11.978;2024-03-02T03:43:58;95783.31;;;7.52;45.89
25350;BME280;13302;48.796;11.978;2024-03-02T03:46:45;95784.66;;;7.43;46.47
25350;BME280;13302;48.796;11.978;2024-03-02T03:49:32;95795.16;;;7.37;46.54
25350;BME280;13302;48.796;11.978;2024-03-02T03:52:19;95793.06;;;7.34;46.79
25350;BME280;13302;48.796;11.978;2024-03-02T03:55:08;95795.38;;;7.32;46.66
25350;BME280;13302;48.796;11.978;2024-03-02T03:57:55;95796.19;;;7.32;46.68
25350;BME280;13302;48.796;11.978;2024-03-02T04:00:42;95804.44;;;7.32;46.62
25350;BME280;13302;48.796;11.978;2024-03-02T04:03:29;95799.28;;;7.31;46.98
25350;BME280;13302;48.796;11.978;2024-03-02T04:06:17;95803.28;;;7.33;47.02
25350;BME280;13302;48.796;11.978;2024-03-02T04:09:04;95797.09;;;7.36;46.77
25350;BME280;13302;48.796;11.978;2024-03-02T04:11:51;95798.69;;;7.38;46.36
25350;BME280;13302;48.796;11.978;2024-03-02T04:14:38;95800.53;;;7.33;46.80
25350;BME280;13302;48.796;11.978;2024-03-02T04:17:25;95804.84;;;7.34;46.75
25350;BME280;13302;48.796;11.978;2024-03-02T04:20:13;95808.78;;;7.33;46.55
25350;BME280;13302;48.796;11.978;2024-03-02T04:23:00;95807.28;;;7.36;46.40
25350;BME280;13302;48.796;11.978;2024-03-02T04:25:47;95812.94;;;7.43;46.49
25350;BME280;13302;48.796;11.978;2024-03-02T04:28:34;95820.13;;;7.48;46.26
25350;BME280;13302;48.796;11.978;2024-03-02T04:31:21;95824.03;;;7.47;46.07
25350;BME280;13302;48.796;11.978;2024-03-02T04:34:08;95822.63;;;7.37;46.77
25350;BME280;13302;48.796;11.978;2024-03-02T04:36:55;95818.28;;;7.36;46.73
25350;BME280;13302;48.796;11.978;2024-03-02T04:39:43;95829.28;;;7.36;46.70
25350;BME280;13302;48.796;11.978;2024-03-02T04:42:30;95821.47;;;7.38;46.79
25350;BME280;13302;48.796;11.978;2024-03-02T04:45:17;95828.94;;;7.38;46.83
25350;BME280;13302;48.796;11.978;2024-03-02T04:48:04;95829.72;;;7.38;46.79
25350;BME280;13302;48.796;11.978;2024-03-02T04:50:51;95833.63;;;7.37;46.65
25350;BME280;13302;48.796;11.978;2024-03-02T04:53:38;95833.97;;;7.35;46.93
25350;BME280;13302;48.796;11.978;2024-03-02T04:56:26;95832.84;;;7.36;46.53
25350;BME280;13302;48.796;11.978;2024-03-02T04:59:19;95833.63;;;7.37;46.77
25350;BME280;13302;48.796;11.978;2024-03-02T05:02:06;95833.97;;;7.35;46.71
25350;BME280;13302;48.796;11.978;2024-03-02T05:04:53;95824.47;;;7.33;47.13
25350;BME280;13302;48.796;11.978;2024-03-02T05:07:41;95839.47;;;7.35;46.66
25350;BME280;13302;48.796;11.978;2024-03-02T05:10:29;95831.69;;;7.38;46.70
25350;BME280;13302;48.796;11.978;2024-03-02T05:13:16;95841.97;;;7.41;46.68
25350;BME280;13302;48.796;11.978;2024-03-02T05:16:04;95843.84;;;7.36;46.89
25350;BME280;13302;48.796;11.978;2024-03-02T05:18:51;95844.19;;;7.35;46.85
25350;BME280;13302;48.796;11.978;2024-03-02T05:21:38;95845.28;;;7.34;46.80
25350;BME280;13302;48.796;11.978;2024-03-02T05:24:26;95844.06;;;7.31;46.67
25350;BME280;13302;48.796;11.978;2024-03-02T05:27:15;95844.25;;;7.38;46.41
25350;BME280;13302;48.796;11.978;2024-03-02T05:30:03;95842.69;;;7.38;46.52
25350;BME280;13302;48.796;11.978;2024-03-02T05:32:53;95844.19;;;7.35;46.61
25350;BME280;13302;48.796;11.978;2024-03-02T05:35:40;95849.13;;;7.29;46.62
25350;BME280;13302;48.796;11.978;2024-03-02T05:38:27;95858.53;;;7.28;46.86
25350;BME280;13302;48.796;11.978;2024-03-02T05:41:14;95854.63;;;7.29;47.03
25350;BME280;13302;48.796;11.978;2024-03-02T05:44:01;95858.47;;;7.41;46.33
25350;BME280;13302;48.796;11.978;2024-03-02T05:46:48;95859.34;;;7.45;46.40
25350;BME280;13302;48.796;11.978;2024-03-02T05:49:35;95852.25;;;7.44;46.47
25350;BME280;13302;48.796;11.978;2024-03-02T05:52:22;95863.97;;;7.41;46.42
25350;BME280;13302;48.796;11.978;2024-03-02T05:55:09;95859.19;;;7.38;46.69
25350;BME280;13302;48.796;11.978;2024-03-02T05:57:56;95864.69;;;7.38;46.31
25350;BME280;13302;48.796;11.978;2024-03-02T06:01:09;95870.53;;;7.36;46.46
25350;BME280;13302;48.796;11.978;2024-03-02T06:03:56;95869.00;;;7.38;46.49
25350;BME280;13302;48.796;11.978;2024-03-02T06:06:44;95869.53;;;7.44;46.54
25350;BME280;13302;48.796;11.978;2024-03-02T06:09:31;95866.00;;;7.44;46.40
25350;BME280;13302;48.796;11.978;2024-03-02T06:12:18;95873.00;;;7.41;46.58
25350;BME280;13302;48.796;11.978;2024-03-02T06:15:06;95868.66;;;7.40;46.29
25350;BME280;13302;48.796;11.978;2024-03-02T06:17:53;95877.16;;;7.35;46.63
25350;BME280;13302;48.796;11.978;2024-03-02T06:20:40;95875.31;;;7.39;46.57
25350;BME280;13302;48.796;11.978;2024-03-02T06:23:27;95878.84;;;7.40;46.41
25350;BME280;13302;48.796;11.978;2024-03-02T06:26:15;95874.25;;;7.44;46.76
25350;BME280;13302;48.796;11.978;2024-03-02T06:29:02;95879.84;;;7.47;46.47
25350;BME280;13302;48.796;11.978;2024-03-02T06:31:49;95875.31;;;7.39;46.98
25350;BME280;13302;48.796;11.978;2024-03-02T06:34:40;95876.81;;;7.36;46.67
25350;BME280;13302;48.796;11.978;2024-03-02T06:37:27;95873.69;;;7.38;46.72
25350;BME280;13302;48.796;11.978;2024-03-02T06:40:14;95873.28;;;7.36;47.09
25350;BME280;13302;48.796;11.978;2024-03-02T06:43:01;95874.88;;;7.37;47.11
25350;BME280;13302;48.796;11.978;2024-03-02T06:45:49;95880.81;;;7.39;47.35
25350;BME280;13302;48.796;11.978;2024-03-02T06:48:37;95882.50;;;7.44;47.32
25350;BME280;13302;48.796;11.978;2024-03-02T06:51:24;95880.09;;;7.42;47.03
25350;BME280;13302;48.796;11.978;2024-03-02T06:54:11;95879.03;;;7.47;46.93
25350;BME280;13302;48.796;11.978;2024-03-02T06:56:58;95882.16;;;7.45;47.22
25350;BME280;13302;48.796;11.978;2024-03-02T06:59:45;95883.72;;;7.46;47.05
25350;BME280;13302;48.796;11.978;2024-03-02T07:02:32;95882.25;;;7.49;47.36
25350;BME280;13302;48.796;11.978;2024-03-02T07:05:19;95878.69;;;7.48;47.13
25350;BME280;13302;48.796;11.978;2024-03-02T07:08:07;95877.97;;;7.51;47.02
25350;BME280;13302;48.796;11.978;2024-03-02T07:10:55;95874.88;;;7.53;47.30
25350;BME280;13302;48.796;11.978;2024-03-02T07:13:42;95877.63;;;7.53;47.18
25350;BME280;13302;48.796;11.978;2024-03-02T07:16:29;95880.72;;;7.51;47.13
25350;BME280;13302;48.796;11.978;2024-03-02T07:19:19;95880.72;;;7.51;47.09
25350;BME280;13302;48.796;11.978;2024-03-02T07:22:07;95886.69;;;7.53;47.05
25350;BME280;13302;48.796;11.978;2024-03-02T07:24:55;95885.88;;;7.53;47.24
25350;BME280;13302;48.796;11.978;2024-03-02T07:27:42;95879.56;;;7.52;46.98
25350;BME280;13302;48.796;11.978;2024-03-02T07:30:31;95885.06;;;7.52;47.11
25350;BME280;13302;48.796;11.978;2024-03-02T07:33:20;95886.69;;;7.53;47.47
25350;BME280;13302;48.796;11.978;2024-03-02T07:36:08;95895.72;;;7.54;47.21
25350;BME280;13302;48.796;11.978;2024-03-02T07:38:55;95898.09;;;7.55;47.45
25350;BME280;13302;48.796;11.978;2024-03-02T07:41:45;95904.41;;;7.56;46.82
25350;BME280;13302;48.796;11.978;2024-03-02T07:44:32;95906.44;;;7.59;47.06
25350;BME280;13302;48.796;11.978;2024-03-02T07:47:20;95907.25;;;7.59;47.20
25350;BME280;13302;48.796;11.978;2024-03-02T07:50:07;95915.50;;;7.59;47.29
25350;BME280;13302;48.796;11.978;2024-03-02T07:52:54;95924.53;;;7.60;47.11
25350;BME280;13302;48.796;11.978;2024-03-02T07:55:41;95922.94;;;7.59;46.91
25350;BME280;13302;48.796;11.978;2024-03-02T07:58:29;95930.84;;;7.60;47.24
25350;BME280;13302;48.796;11.978;2024-03-02T08:01:18;95935.91;;;7.58;46.91
25350;BME280;13302;48.796;11.978;2024-03-02T08:04:06;95937.88;;;7.58;47.19
25350;BME280;13302;48.796;11.978;2024-03-02T08:06:53;95932.38;;;7.58;46.87
25350;BME280;13302;48.796;11.978;2024-03-02T08:09:41;95937.50;;;7.59;46.80
25350;BME280;13302;48.796;11.978;2024-03-02T08:12:28;95949.31;;;7.60;46.91
25350;BME280;13302;48.796;11.978;2024-03-02T08:15:15;95939.91;;;7.61;47.12
25350;BME280;13302;48.796;11.978;2024-03-02T08:18:03;95930.06;;;7.60;47.00
25350;BME280;13302;48.796;11.978;2024-03-02T08:20:50;95930.84;;;7.60;47.00
25350;BME280;13302;48.796;11.978;2024-03-02T08:23:37;95935.22;;;7.61;47.01
25350;BME280;13302;48.796;11.978;2024-03-02T08:26:27;95934.84;;;7.63;47.11
25350;BME280;13302;48.796;11.978;2024-03-02T08:29:17;95937.31;;;7.68;46.99
25350;BME280;13302;48.796;11.978;2024-03-02T08:32:05;95939.28;;;7.67;46.80
25350;BME280;13302;48.796;11.978;2024-03-02T08:34:52;95946.72;;;7.67;47.10
25350;BME280;13302;48.796;11.978;2024-03-02T08:37:41;95944.78;;;7.67;46.83
25350;BME280;13302;48.796;11.978;2024-03-02T08:40:28;95947.53;;;7.67;46.87
25350;BME280;13302;48.796;11.978;2024-03-02T08:43:16;95949.47;;;7.67;47.04
25350;BME280;13302;48.796;11.978;2024-03-02T08:46:03;95956.16;;;7.66;47.07
25350;BME280;13302;48.796;11.978;2024-03-02T08:48:50;95962.47;;;7.66;47.21
25350;BME280;13302;48.796;11.978;2024-03-02T08:51:37;95961.66;;;7.66;47.25
25350;BME280;13302;48.796;11.978;2024-03-02T08:54:25;95959.72;;;7.66;46.88
25350;BME280;13302;48.796;11.978;2024-03-02T08:57:12;95958.53;;;7.67;47.03
25350;BME280;13302;48.796;11.978;2024-03-02T08:59:59;95954.63;;;7.68;47.29
25350;BME280;13302;48.796;11.978;2024-03-02T09:02:47;95955.09;;;7.70;46.86
25350;BME280;13302;48.796;11.978;2024-03-02T09:05:34;95952.34;;;7.70;47.19
25350;BME280;13302;48.796;11.978;2024-03-02T09:08:22;95961.03;;;7.72;47.27
25350;BME280;13302;48.796;11.978;2024-03-02T09:11:09;95959.06;;;7.73;47.21
25350;BME280;13302;48.796;11.978;2024-03-02T09:13:57;95964.22;;;7.74;47.22
25350;BME280;13302;48.796;11.978;2024-03-02T09:16:44;95967.41;;;7.76;46.98
25350;BME280;13302;48.796;11.978;2024-03-02T09:19:31;95959.16;;;7.76;47.16
25350;BME280;13302;48.796;11.978;2024-03-02T09:22:19;95963.16;;;7.79;47.16
25350;BME280;13302;48.796;11.978;2024-03-02T09:25:07;95960.03;;;7.80;46.96
25350;BME280;13302;48.796;11.978;2024-03-02T09:27:55;95958.91;;;7.81;47.17
25350;BME280;13302;48.796;11.978;2024-03-02T09:30:42;95959.72;;;7.82;47.17
25350;BME280;13302;48.796;11.978;2024-03-02T09:33:29;95967.97;;;7.82;47.22
25350;BME280;13302;48.796;11.978;2024-03-02T09:36:21;95962.38;;;7.78;47.37
25350;BME280;13302;48.796;11.978;2024-03-02T09:39:09;95958.09;;;7.81;47.13
25350;BME280;13302;48.796;11.978;2024-03-02T09:41:58;95951.44;;;7.82;47.00
25350;BME280;13302;48.796;11.978;2024-03-02T09:44:47;95949.50;;;7.82;47.01
25350;BME280;13302;48.796;11.978;2024-03-02T09:47:34;95947.53;;;7.83;46.85
25350;BME280;13302;48.796;11.978;2024-03-02T09:50:21;95950.38;;;7.87;46.90
25350;BME280;13302;48.796;11.978;2024-03-02T09:53:10;95952.97;;;7.95;46.96
25350;BME280;13302;48.796;11.978;2024-03-02T09:55:59;95954.84;;;7.91;46.73
25350;BME280;13302;48.796;11.978;2024-03-02T09:58:47;95954.91;;;7.95;46.59
25350;BME280;13302;48.796;11.978;2024-03-02T10:01:34;95954.84;;;7.91;46.78
25350;BME280;13302;48.796;11.978;2024-03-02T10:04:23;95950.91;;;7.92;46.70
25350;BME280;13302;48.796;11.978;2024-03-02T10:07:15;95952.50;;;7.93;46.92
25350;BME280;13302;48.796;11.978;2024-03-02T10:10:15;95947.00;;;7.93;46.80
25350;BME280;13302;48.796;11.978;2024-03-02T10:13:04;95950.22;;;7.95;46.90
25350;BME280;13302;48.796;11.978;2024-03-02T10:15:54;95950.63;;;7.97;47.13
25350;BME280;13302;48.796;11.978;2024-03-02T10:18:42;95947.16;;;8.00;46.95
25350;BME280;13302;48.796;11.978;2024-03-02T10:21:29;95947.63;;;8.02;47.14
25350;BME280;13302;48.796;11.978;2024-03-02T10:24:19;95947.25;;;8.04;47.07
25350;BME280;13302;48.796;11.978;2024-03-02T10:27:14;95948.84;;;8.05;46.76
25350;BME280;13302;48.796;11.978;2024-03-02T10:30:02;95948.50;;;8.06;47.17
25350;BME280;13302;48.796;11.978;2024-03-02T10:32:50;95942.53;;;8.04;46.85
25350;BME280;13302;48.796;11.978;2024-03-02T10:35:38;95936.25;;;8.04;46.63
25350;BME280;13302;48.796;11.978;2024-03-02T10:38:26;95933.13;;;8.05;46.79
25350;BME280;13302;48.796;11.978;2024-03-02T10:41:17;95926.84;;;8.05;46.84
25350;BME280;13302;48.796;11.978;2024-03-02T10:44:09;95933.94;;;8.06;46.66
25350;BME280;13302;48.796;11.978;2024-03-02T10:46:57;95928.09;;;8.07;46.71
25350;BME280;13302;48.796;11.978;2024-03-02T10:49:46;95928.09;;;8.07;46.99
25350;BME280;13302;48.796;11.978;2024-03-02T10:52:35;95923.72;;;8.06;46.81
25350;BME280;13302;48.796;11.978;2024-03-02T10:55:22;95919.72;;;8.04;46.73
25350;BME280;13302;48.796;11.978;2024-03-02T10:58:12;95921.25;;;8.01;46.87
25350;BME280;13302;48.796;11.978;2024-03-02T11:01:03;95917.69;;;8.01;46.69
25350;BME280;13302;48.796;11.978;2024-03-02T11:03:50;95907.84;;;8.00;46.88
25350;BME280;13302;48.796;11.978;2024-03-02T11:06:41;95910.59;;;8.00;47.01
25350;BME280;13302;48.796;11.978;2024-03-02T11:09:42;95907.84;;;8.00;47.14
25350;BME280;13302;48.796;11.978;2024-03-02T11:12:36;95898.44;;;8.01;47.04
25350;BME280;13302;48.796;11.978;2024-03-02T11:15:27;95892.66;;;8.06;47.03
25350;BME280;13302;48.796;11.978;2024-03-02T11:18:14;95885.63;;;8.08;47.09
25350;BME280;13302;48.796;11.978;2024-03-02T11:21:04;95883.41;;;8.14;46.93
25350;BME280;13302;48.796;11.978;2024-03-02T11:23:52;95882.25;;;8.15;47.31
25350;BME280;13302;48.796;11.978;2024-03-02T11:26:39;95875.22;;;8.17;47.02
25350;BME280;13302;48.796;11.978;2024-03-02T11:32:23;95862.69;;;8.20;47.46
25350;BME280;13302;48.796;11.978;2024-03-02T11:35:11;95856.81;;;8.21;47.13
25350;BME280;13302;48.796;11.978;2024-03-02T11:37:58;95855.31;;;8.24;47.09
25350;BME280;13302;48.796;11.978;2024-03-02T11:40:45;95849.09;;;8.27;47.13
25350;BME280;13302;48.796;11.978;2024-03-02T11:43:37;95841.25;;;8.29;47.35
25350;BME280;13302;48.796;11.978;2024-03-02T11:46:25;95843.31;;;8.32;47.42
25350;BME280;13302;48.796;11.978;2024-03-02T11:49:35;95838.22;;;8.34;47.77
25350;BME280;13302;48.796;11.978;2024-03-02T11:52:23;95838.28;;;8.38;47.53
25350;BME280;13302;48.796;11.978;2024-03-02T11:55:11;95838.75;;;8.40;47.39
25350;BME280;13302;48.796;11.978;2024-03-02T11:58:01;95834.81;;;8.41;47.56
25350;BME280;13302;48.796;11.978;2024-03-02T12:00:55;95830.47;;;8.40;48.01
25350;BME280;13302;48.796;11.978;2024-03-02T12:03:43;95827.41;;;8.45;47.51
25350;BME280;13302;48.796;11.978;2024-03-02T12:06:31;95825.53;;;8.49;47.44
25350;BME280;13302;48.796;11.978;2024-03-02T12:09:18;95826.47;;;8.53;47.65
25350;BME280;13302;48.796;11.978;2024-03-02T12:12:06;95822.59;;;8.57;47.62
25350;BME280;13302;48.796;11.978;2024-03-02T12:14:54;95818.75;;;8.62;47.35
25350;BME280;13302;48.796;11.978;2024-03-02T12:17:42;95812.53;;;8.65;47.60
25350;BME280;13302;48.796;11.978;2024-03-02T12:20:31;95807.09;;;8.68;47.16
25350;BME280;13302;48.796;11.978;2024-03-02T12:23:19;95802.44;;;8.72;47.43
25350;BME280;13302;48.796;11.978;2024-03-02T12:26:07;95795.03;;;8.77;47.60
25350;BME280;13302;48.796;11.978;2024-03-02T12:28:54;95800.22;;;8.82;47.40
25350;BME280;13302;48.796;11.978;2024-03-02T12:31:44;95798.28;;;8.82;47.09
25350;BME280;13302;48.796;11.978;2024-03-02T12:34:34;95792.47;;;8.87;47.24
25350;BME280;13302;48.796;11.978;2024-03-02T12:37:21;95788.97;;;8.90;47.06
25350;BME280;13302;48.796;11.978;2024-03-02T12:40:10;95789.06;;;8.94;47.37
25350;BME280;13302;48.796;11.978;2024-03-02T12:42:58;95780.41;;;8.95;47.12
25350;BME280;13302;48.796;11.978;2024-03-02T12:45:46;95778.09;;;8.97;47.17
25350;BME280;13302;48.796;11.978;2024-03-02T12:48:34;95774.94;;;8.99;47.22
25350;BME280;13302;48.796;11.978;2024-03-02T12:51:22;95770.69;;;9.01;47.53
25350;BME280;13302;48.796;11.978;2024-03-02T12:54:10;95764.44;;;9.04;47.30
25350;BME280;13302;48.796;11.978;2024-03-02T12:56:57;95763.09;;;9.17;47.11
25350;BME280;13302;48.796;11.978;2024-03-02T12:59:47;95769.63;;;9.32;46.49
25350;BME280;13302;48.796;11.978;2024-03-02T13:02:36;95761.34;;;9.32;46.30
25350;BME280;13302;48.796;11.978;2024-03-02T13:05:23;95762.84;;;9.26;46.70
25350;BME280;13302;48.796;11.978;2024-03-02T13:08:12;95763.31;;;9.32;46.26
25350;BME280;13302;48.796;11.978;2024-03-02T13:11:00;95755.81;;;9.32;46.40
25350;BME280;13302;48.796;11.978;2024-03-02T13:13:47;95759.75;;;9.31;46.59
25350;BME280;13302;48.796;11.978;2024-03-02T13:16:44;95750.69;;;9.31;46.40
25350;BME280;13302;48.796;11.978;2024-03-02T13:19:34;95744.50;;;9.37;45.97
25350;BME280;13302;48.796;11.978;2024-03-02T13:22:21;95760.09;;;9.52;45.77
25350;BME280;13302;48.796;11.978;2024-03-02T13:25:09;95736.72;;;9.43;45.56
25350;BME280;13302;48.796;11.978;2024-03-02T13:27:58;95739.13;;;9.48;45.86
25350;BME280;13302;48.796;11.978;2024-03-02T13:30:46;95731.19;;;9.43;46.04
25350;BME280;13302;48.796;11.978;2024-03-02T13:33:33;95732.09;;;9.50;45.72
25350;BME280;13302;48.796;11.978;2024-03-02T13:36:20;95723.41;;;9.52;45.51
25350;BME280;13302;48.796;11.978;2024-03-02T13:39:07;95738.53;;;9.58;45.10
25350;BME280;13302;48.796;11.978;2024-03-02T13:41:58;95727.28;;;9.47;45.57
25350;BME280;13302;48.796;11.978;2024-03-02T13:44:50;95718.16;;;9.43;45.91
25350;BME280;13302;48.796;11.978;2024-03-02T13:47:38;95717.44;;;9.46;46.01
25350;BME280;13302;48.796;11.978;2024-03-02T13:50:25;95719.75;;;9.44;46.24
25350;BME280;13302;48.796;11.978;2024-03-02T13:53:12;95714.09;;;9.60;45.52
25350;BME280;13302;48.796;11.978;2024-03-02T13:55:59;95720.06;;;9.62;44.98
25350;BME280;13302;48.796;11.978;2024-03-02T13:58:46;95719.13;;;9.54;45.34
25350;BME280;13302;48.796;11.978;2024-03-02T14:01:34;95711.22;;;9.53;45.54
25350;BME280;13302;48.796;11.978;2024-03-02T14:04:21;95711.22;;;9.53;45.90
25350;BME280;13302;48.796;11.978;2024-03-02T14:07:08;95701.78;;;9.54;45.60
25350;BME280;13302;48.796;11.978;2024-03-02T14:09:56;95694.31;;;9.54;46.07
25350;BME280;13302;48.796;11.978;2024-03-02T14:12:44;95700.00;;;9.65;45.63
25350;BME280;13302;48.796;11.978;2024-03-02T14:15:31;95700.00;;;9.65;45.38
25350;BME280;13302;48.796;11.978;2024-03-02T14:18:18;95692.28;;;9.78;44.88
25350;BME280;13302;48.796;11.978;2024-03-02T14:21:07;95690.66;;;9.73;45.31
25350;BME280;13302;48.796;11.978;2024-03-02T14:23:54;95687.94;;;9.77;44.93
25350;BME280;13302;48.796;11.978;2024-03-02T14:26:42;95691.88;;;9.76;45.29
25350;BME280;13302;48.796;11.978;2024-03-02T14:29:29;95688.69;;;9.74;45.48
25350;BME280;13302;48.796;11.978;2024-03-02T14:32:16;95692.75;;;9.83;44.76
25350;BME280;13302;48.796;11.978;2024-03-02T14:35:04;95682.16;;;9.89;44.71
25350;BME280;13302;48.796;11.978;2024-03-02T14:37:51;95682.25;;;9.92;44.52
25350;BME280;13302;48.796;11.978;2024-03-02T14:40:39;95682.94;;;9.86;44.68
25350;BME280;13302;48.796;11.978;2024-03-02T14:43:26;95682.97;;;9.89;44.35
25350;BME280;13302;48.796;11.978;2024-03-02T14:46:13;95680.50;;;9.81;44.80
25350;BME280;13302;48.796;11.978;2024-03-02T14:49:01;95683.59;;;9.76;44.97
25350;BME280;13302;48.796;11.978;2024-03-02T14:51:48;95680.00;;;9.72;45.22
25350;BME280;13302;48.796;11.978;2024-03-02T14:54:36;95679.19;;;9.71;45.37
25350;BME280;13302;48.796;11.978;2024-03-02T14:57:25;95673.28;;;9.73;45.43